createdAt,value
2022-09-06T00:00:30.026Z,99.90
2022-09-06T00:03:28.891Z,99.90
2022-09-06T00:05:57.899Z,99.90
2022-09-06T00:08:26.775Z,99.90
2022-09-06T00:11:01.227Z,99.90
2022-09-06T00:19:11.388Z,99.90
2022-09-06T00:21:41.659Z,99.90
2022-09-06T00:24:51.464Z,99.90
2022-09-06T00:27:20.675Z,99.90
2022-09-06T00:29:49.972Z,99.90
2022-09-06T00:36:29.510Z,99.90
2022-09-06T00:39:00.010Z,99.90
2022-09-06T00:41:28.991Z,99.90
2022-09-06T00:44:05.543Z,99.90
2022-09-06T00:46:35.358Z,99.90
2022-09-06T00:49:08.058Z,99.90
2022-09-06T00:51:37.799Z,99.90
2022-09-06T00:54:10.456Z,99.90
2022-09-06T00:56:43.800Z,99.90
2022-09-06T00:59:13.346Z,99.90
2022-09-06T01:01:44.816Z,99.90
2022-09-06T01:04:14.607Z,99.90
2022-09-06T01:06:55.113Z,99.90
2022-09-06T01:09:39.022Z,99.90
2022-09-06T01:12:28.806Z,99.90
2022-09-06T01:15:09.922Z,99.90
2022-09-06T01:17:49.999Z,99.90
2022-09-06T01:20:39.267Z,99.90
2022-09-06T01:23:52.879Z,99.90
2022-09-06T01:29:35.779Z,99.90
2022-09-06T01:33:16.129Z,99.90
2022-09-06T01:35:52.705Z,99.90
2022-09-06T01:38:22.312Z,99.90
2022-09-06T01:40:51.595Z,99.90
2022-09-06T01:44:06.241Z,99.90
2022-09-06T02:27:02.924Z,99.90
2022-09-06T02:29:34.088Z,99.90
2022-09-06T02:33:24.301Z,99.90
2022-09-06T02:40:13.722Z,99.90
2022-09-06T05:36:10.190Z,99.90
2022-09-06T05:38:39.049Z,99.90
2022-09-06T05:41:09.753Z,99.90
2022-09-06T05:44:55.232Z,99.90
2022-09-06T05:47:24.187Z,99.90
2022-09-06T05:49:53.396Z,99.90
2022-09-06T06:47:44.513Z,99.90
2022-09-06T06:50:13.429Z,99.90
2022-09-06T06:52:42.263Z,99.90
2022-09-06T07:02:17.962Z,99.90
2022-09-06T07:04:47.067Z,99.90
2022-09-06T07:07:32.862Z,99.90
2022-09-06T07:17:27.187Z,99.90
2022-09-06T07:22:46.293Z,99.90
2022-09-06T07:25:21.251Z,99.90
2022-09-06T07:28:51.642Z,99.90
2022-09-06T07:34:11.560Z,99.90
2022-09-06T07:36:40.381Z,99.90
2022-09-06T07:39:09.221Z,99.90
2022-09-06T07:41:48.330Z,99.90
2022-09-06T07:44:46.548Z,99.90
2022-09-06T07:53:31.069Z,99.90
2022-09-06T07:56:02.170Z,99.90
2022-09-06T07:59:36.704Z,99.90
2022-09-06T08:03:05.860Z,99.90
2022-09-06T08:11:15.685Z,99.90
2022-09-06T08:13:44.692Z,99.90
2022-09-06T08:16:17.143Z,99.90
2022-09-06T08:18:46.268Z,99.90
2022-09-06T08:21:17.817Z,99.90
2022-09-06T08:24:06.413Z,99.90
2022-09-06T08:26:39.640Z,99.90
2022-09-06T08:29:09.070Z,99.90
2022-09-06T08:32:38.747Z,99.90
2022-09-06T08:35:41.214Z,99.90
2022-09-06T08:38:51.384Z,99.90
2022-09-06T08:41:27.628Z,99.90
2022-09-06T08:45:04.959Z,99.90
2022-09-06T08:47:34.096Z,99.90
2022-09-06T08:50:05.642Z,99.90
2022-09-06T08:53:16.055Z,99.90
2022-09-06T08:55:53.047Z,99.90
2022-09-06T08:59:06.810Z,99.90
2022-09-06T09:05:31.634Z,99.90
2022-09-06T09:08:08.063Z,99.90
2022-09-06T09:11:19.095Z,99.90
2022-09-06T09:18:02.249Z,99.90
2022-09-06T09:20:31.247Z,99.90
2022-09-06T09:24:06.487Z,99.90
2022-09-06T09:27:05.646Z,99.90
2022-09-06T09:29:36.491Z,99.90
2022-09-06T09:32:37.037Z,99.90
2022-09-06T09:35:34.001Z,99.30
2022-09-06T09:38:12.103Z,99.40
2022-09-06T09:40:43.663Z,98.90
2022-09-06T09:43:20.508Z,98.70
2022-09-06T09:46:14.529Z,98.70
2022-09-06T09:48:49.975Z,98.40
2022-09-06T09:51:27.441Z,99.00
2022-09-06T09:53:58.579Z,99.60
2022-09-06T09:56:39.011Z,99.40
2022-09-06T09:59:19.384Z,99.30
2022-09-06T10:02:45.782Z,98.80
2022-09-06T10:05:22.428Z,98.80
2022-09-06T10:07:56.093Z,99.20
2022-09-06T10:10:27.140Z,98.60
2022-09-06T10:13:09.527Z,98.40
2022-09-06T10:15:40.386Z,98.20
2022-09-06T10:19:18.589Z,98.10
2022-09-06T10:21:56.776Z,98.10
2022-09-06T10:28:46.993Z,97.50
2022-09-06T10:31:55.411Z,98.20
2022-09-06T10:34:58.891Z,98.00
2022-09-06T10:37:49.337Z,97.30
2022-09-06T10:40:58.652Z,97.10
2022-09-06T10:44:01.498Z,97.40
2022-09-06T10:46:35.674Z,97.20
2022-09-06T10:49:04.742Z,97.40
2022-09-06T10:51:40.106Z,96.80
2022-09-06T10:54:19.215Z,96.50
2022-09-06T10:57:00.402Z,97.10
2022-09-06T11:02:36.934Z,96.50
2022-09-06T11:10:56.846Z,96.40
2022-09-06T11:13:29.529Z,97.30
2022-09-06T11:17:06.970Z,97.20
2022-09-06T11:20:09.981Z,95.80
2022-09-06T11:23:28.354Z,96.50
2022-09-06T11:26:25.198Z,96.10
2022-09-06T11:33:20.436Z,96.00
2022-09-06T11:36:34.301Z,96.70
2022-09-06T11:39:05.452Z,96.50
2022-09-06T11:41:36.847Z,96.40
2022-09-06T11:44:13.144Z,96.60
2022-09-06T11:47:04.152Z,96.40
2022-09-06T11:49:35.393Z,96.20
2022-09-06T11:53:00.042Z,95.70
2022-09-06T11:55:39.560Z,96.00
2022-09-06T11:58:31.289Z,96.20
2022-09-06T12:01:36.677Z,95.70
2022-09-06T12:04:13.972Z,96.10
2022-09-06T12:06:44.262Z,96.20
2022-09-06T12:09:33.148Z,96.20
2022-09-06T12:12:16.211Z,96.00
2022-09-06T12:14:47.450Z,96.60
2022-09-06T12:17:25.849Z,96.60
2022-09-06T12:20:06.545Z,96.30
2022-09-06T12:22:55.853Z,96.10
2022-09-06T12:26:01.943Z,96.60
2022-09-06T12:28:51.614Z,96.40
2022-09-06T12:31:36.229Z,96.20
2022-09-06T12:34:11.183Z,96.30
2022-09-06T12:36:56.818Z,96.00
2022-09-06T12:39:26.680Z,95.90
2022-09-06T12:41:59.362Z,95.70
2022-09-06T12:44:35.500Z,95.50
2022-09-06T12:47:10.909Z,96.80
2022-09-06T12:49:40.055Z,95.90
2022-09-06T12:52:11.961Z,96.30
2022-09-06T12:54:47.274Z,96.30
2022-09-06T12:57:27.667Z,96.10
2022-09-06T12:59:59.029Z,97.20
2022-09-06T13:02:56.098Z,95.70
2022-09-06T13:05:26.166Z,95.90
2022-09-06T13:07:56.916Z,96.00
2022-09-06T13:10:54.505Z,95.60
2022-09-06T13:13:53.077Z,95.90
2022-09-06T13:16:26.838Z,95.30
2022-09-06T13:18:56.461Z,95.50
2022-09-06T13:21:31.327Z,96.20
2022-09-06T13:24:04.108Z,95.40
2022-09-06T13:26:38.161Z,95.40
2022-09-06T13:29:23.348Z,95.80
2022-09-06T13:32:22.570Z,95.60
2022-09-06T13:34:57.026Z,95.30
2022-09-06T13:37:29.060Z,95.70
2022-09-06T13:39:58.958Z,94.90
2022-09-06T13:42:30.927Z,95.70
2022-09-06T13:45:02.282Z,95.50
2022-09-06T13:47:33.255Z,95.90
2022-09-06T13:50:02.342Z,96.30
2022-09-06T13:52:31.360Z,96.50
2022-09-06T13:55:00.882Z,96.30
2022-09-06T13:57:30.572Z,96.10
2022-09-06T14:00:00.142Z,95.90
2022-09-06T14:02:29.359Z,96.10
2022-09-06T14:05:00.067Z,96.30
2022-09-06T14:07:49.130Z,96.10
2022-09-06T14:10:19.446Z,96.30
2022-09-06T14:17:20.159Z,96.60
2022-09-06T14:19:50.673Z,96.70
2022-09-06T14:22:21.006Z,96.60
2022-09-06T14:24:50.488Z,97.20
2022-09-06T14:27:19.595Z,97.40
2022-09-06T14:29:49.508Z,97.90
2022-09-06T14:32:22.505Z,97.20
2022-09-06T14:34:51.682Z,96.90
2022-09-06T14:37:22.046Z,97.00
2022-09-06T14:40:27.883Z,96.70
2022-09-06T14:42:58.525Z,96.60
2022-09-06T14:45:27.909Z,96.30
2022-09-06T14:47:56.660Z,96.40
2022-09-06T14:50:25.846Z,96.00
2022-09-06T14:52:56.516Z,96.10
2022-09-06T14:55:26.076Z,96.70
2022-09-06T14:57:55.432Z,96.50
2022-09-06T15:00:24.229Z,96.50
2022-09-06T15:02:54.655Z,96.60
2022-09-06T15:09:48.030Z,96.40
2022-09-06T15:12:17.423Z,96.00
2022-09-06T15:14:46.050Z,95.90
2022-09-06T15:17:15.106Z,96.60
2022-09-06T15:19:44.343Z,95.90
2022-09-06T15:22:13.165Z,96.50
2022-09-06T15:24:41.976Z,95.80
2022-09-06T15:27:12.868Z,96.00
2022-09-06T15:29:42.694Z,96.20
2022-09-06T15:32:11.909Z,95.50
2022-09-06T15:34:40.590Z,95.70
2022-09-06T15:37:10.148Z,96.60
2022-09-06T15:39:38.986Z,96.70
2022-09-06T15:42:09.177Z,97.80
2022-09-06T15:44:40.159Z,97.60
2022-09-06T15:47:09.360Z,97.90
2022-09-06T15:49:41.245Z,98.30
2022-09-06T15:52:10.377Z,99.00
2022-09-06T15:54:57.073Z,99.30
2022-09-06T15:57:26.035Z,98.80
2022-09-06T15:59:56.913Z,99.20
2022-09-06T16:02:26.652Z,99.90
2022-09-06T16:04:56.457Z,99.90
2022-09-06T16:07:26.100Z,99.90
2022-09-06T16:09:58.526Z,99.90
2022-09-06T16:12:29.219Z,99.30
2022-09-06T16:15:04.315Z,99.90
2022-09-06T16:17:35.733Z,99.90
2022-09-06T16:20:05.490Z,99.90
2022-09-06T16:22:56.465Z,99.90
2022-09-06T16:25:28.884Z,99.90
2022-09-06T16:31:50.906Z,99.90
2022-09-06T16:34:20.051Z,99.90
2022-09-06T16:36:50.313Z,99.90
2022-09-06T16:39:52.427Z,99.90
2022-09-06T16:47:06.492Z,99.90
2022-09-06T16:49:35.481Z,99.90
2022-09-06T16:52:05.128Z,99.90
2022-09-06T16:54:34.203Z,99.90
2022-09-06T16:57:06.939Z,99.90
2022-09-06T16:59:36.032Z,99.90
2022-09-06T17:02:07.669Z,99.90
2022-09-06T17:04:37.852Z,99.90
2022-09-06T17:07:08.230Z,99.90
2022-09-06T17:09:37.203Z,99.90
2022-09-06T17:12:08.182Z,99.90
2022-09-06T17:14:37.663Z,99.90
2022-09-06T17:21:23.741Z,99.90
2022-09-06T17:23:54.839Z,99.90
2022-09-06T17:26:26.799Z,99.90
2022-09-06T17:28:57.214Z,99.90
2022-09-06T17:31:50.927Z,99.90
2022-09-06T17:34:22.957Z,99.90
2022-09-06T17:36:54.282Z,99.90
2022-09-06T17:39:59.735Z,99.90
2022-09-06T17:42:32.076Z,99.90
2022-09-06T17:45:01.261Z,99.90
2022-09-06T17:47:30.219Z,99.90
2022-09-06T17:49:59.558Z,99.90
2022-09-06T17:52:32.484Z,99.90
2022-09-06T17:55:01.761Z,99.90
2022-09-06T17:57:30.667Z,99.90
2022-09-06T18:00:06.670Z,99.90
2022-09-06T18:02:45.089Z,99.90
2022-09-06T18:05:14.637Z,99.90
2022-09-06T18:07:45.660Z,99.90
2022-09-06T18:10:18.066Z,99.90
2022-09-06T18:13:50.841Z,99.90
2022-09-06T18:16:20.247Z,99.90
2022-09-06T18:23:25.929Z,99.90
2022-09-06T18:26:31.655Z,99.90
2022-09-06T18:29:00.981Z,99.90
2022-09-06T18:32:03.164Z,99.90
2022-09-06T18:35:02.795Z,99.90
2022-09-06T18:38:30.770Z,99.90
2022-09-06T18:41:02.115Z,99.90
2022-09-06T18:43:36.749Z,99.90
2022-09-06T18:46:16.188Z,99.90
2022-09-06T18:49:23.958Z,99.90
2022-09-06T18:51:56.934Z,99.90
2022-09-06T18:55:04.522Z,99.90
2022-09-06T18:57:33.823Z,99.90
2022-09-06T19:00:05.540Z,99.90
2022-09-06T19:02:47.202Z,99.90
2022-09-06T19:05:17.418Z,99.90
2022-09-06T19:07:46.368Z,99.90
2022-09-06T19:10:15.587Z,99.90
2022-09-06T19:12:45.008Z,99.90
2022-09-06T19:15:15.277Z,99.90
2022-09-06T19:18:06.644Z,99.90
2022-09-06T19:20:35.799Z,99.90
2022-09-06T19:27:29.985Z,99.90
2022-09-06T19:29:59.592Z,99.90
2022-09-06T19:33:06.506Z,99.90
2022-09-06T19:36:12.021Z,99.90
2022-09-06T19:39:05.588Z,99.90
2022-09-06T19:41:37.191Z,99.90
2022-09-06T19:44:34.874Z,99.90
2022-09-06T19:47:04.010Z,99.90
2022-09-06T19:49:33.285Z,99.90
2022-09-06T19:53:07.418Z,99.90
2022-09-06T19:55:39.079Z,99.90
2022-09-06T19:58:09.627Z,99.90
2022-09-06T20:00:43.103Z,99.90
2022-09-06T20:03:43.459Z,99.90
2022-09-06T20:06:49.844Z,99.90
2022-09-06T20:09:19.332Z,99.90
2022-09-06T20:12:00.094Z,99.90
2022-09-06T20:15:41.749Z,99.90
2022-09-06T20:18:40.309Z,99.90
2022-09-06T20:21:10.577Z,99.90
2022-09-06T20:33:07.235Z,99.90
2022-09-06T20:35:36.525Z,99.90
2022-09-06T20:38:05.348Z,99.90
2022-09-06T20:40:34.547Z,99.90
2022-09-06T20:43:03.930Z,99.90
2022-09-06T20:45:35.443Z,99.90
2022-09-06T20:48:06.536Z,99.90
2022-09-06T20:50:36.058Z,99.90
2022-09-06T20:53:16.258Z,99.90
2022-09-06T20:55:45.847Z,99.90
2022-09-06T20:58:15.295Z,99.90
2022-09-06T21:00:44.606Z,99.90
2022-09-06T21:03:24.141Z,99.90
2022-09-06T21:05:54.138Z,99.90
2022-09-06T21:17:11.237Z,99.90
2022-09-06T21:24:34.164Z,99.90
2022-09-06T21:31:09.900Z,99.90
2022-09-06T21:38:21.617Z,99.90
2022-09-06T21:40:51.842Z,99.90
2022-09-06T21:43:58.380Z,99.90
2022-09-06T21:47:03.644Z,99.90
2022-09-06T21:49:33.117Z,99.90
2022-09-06T21:56:48.268Z,99.90
2022-09-06T21:59:17.215Z,99.90
2022-09-06T22:01:46.600Z,99.90
2022-09-06T22:16:58.046Z,99.90
2022-09-06T22:19:27.540Z,99.90
2022-09-06T22:22:20.377Z,99.90
2022-09-06T22:25:23.524Z,99.90
2022-09-06T22:33:01.855Z,99.90
2022-09-06T22:35:33.021Z,99.90
2022-09-06T22:38:02.611Z,99.90
2022-09-06T22:40:31.089Z,99.90
2022-09-06T22:43:40.105Z,99.90
2022-09-06T22:47:05.937Z,99.90
2022-09-06T22:50:04.985Z,99.90
2022-09-06T22:57:32.043Z,99.90
2022-09-06T23:00:03.069Z,99.90
2022-09-06T23:07:17.113Z,99.90
2022-09-06T23:09:46.331Z,99.90
2022-09-06T23:16:49.685Z,99.90
2022-09-06T23:19:19.751Z,99.90
2022-09-06T23:34:52.355Z,99.90
2022-09-06T23:37:21.739Z,99.90
2022-09-06T23:39:51.119Z,99.90
2022-09-06T23:42:50.448Z,99.90
2022-09-06T23:46:35.898Z,99.90
2022-09-06T23:49:05.342Z,99.90
2022-09-06T23:51:35.695Z,99.90
2022-09-06T23:59:11.528Z,99.90
